Time;durP1;ratioP1;P1;durP2;ratioP2;P2;SDS_P1;SDS_P2;PMS_P1;PMS_P2;Temp;Humidity;BMP_temperature;BMP_pressure;BME280_temperature;BME280_humidity;BME280_pressure;Samples;Min_cycle;Max_cycle;Signal;HPM_P1;HPM_P2
2022/01/11 00:00:13;;;;;;;5.80;1.60;;;26.60;92.50;;;;;;5054642;28;20036;-61
2022/01/11 00:02:44;;;;;;;17.77;2.72;;;26.60;92.60;;;;;;5073066;28;20028;-58
2022/01/11 00:05:27;;;;;;;11.83;3.50;;;26.60;92.40;;;;;;5073288;28;20478;-59
2022/01/11 00:07:55;;;;;;;8.00;1.98;;;26.60;92.40;;;;;;5072412;28;20340;-59
2022/01/11 00:10:33;;;;;;;11.50;2.45;;;26.60;92.40;;;;;;5073066;28;20173;-59
2022/01/11 00:13:01;;;;;;;5.55;1.67;;;26.70;92.40;;;;;;5072663;28;20344;-59
2022/01/11 00:15:30;;;;;;;6.93;2.08;;;26.70;92.30;;;;;;5072828;28;20056;-60
2022/01/11 00:17:57;;;;;;;6.97;1.98;;;26.60;92.30;;;;;;5072843;28;20032;-57
2022/01/11 00:20:28;;;;;;;6.25;1.98;;;26.70;92.40;;;;;;5072570;28;20020;-59
2022/01/11 00:25:31;;;;;;;5.72;1.67;;;26.60;92.60;;;;;;5072749;28;20021;-58
2022/01/11 00:27:59;;;;;;;4.95;2.10;;;26.60;92.50;;;;;;5072186;28;20029;-60
2022/01/11 00:30:35;;;;;;;4.75;1.67;;;26.70;92.10;;;;;;5072488;28;20017;-58
2022/01/11 00:33:08;;;;;;;6.07;2.00;;;26.80;92.30;;;;;;5072455;28;20077;-58
2022/01/11 00:35:43;;;;;;;9.93;2.47;;;26.90;92.20;;;;;;5072665;28;20078;-56
2022/01/11 00:38:17;;;;;;;4.15;1.40;;;26.90;92.20;;;;;;5071066;28;20071;-60
2022/01/11 00:40:49;;;;;;;6.07;2.00;;;27.00;92.00;;;;;;5072499;28;20033;-58
2022/01/11 00:43:22;;;;;;;5.13;1.67;;;26.90;91.80;;;;;;5072702;28;20017;-55
2022/01/11 00:45:51;;;;;;;6.88;2.28;;;27.00;91.90;;;;;;5072480;28;20021;-55
2022/01/11 00:48:19;;;;;;;5.28;1.70;;;27.10;91.30;;;;;;5072454;28;20020;-53
2022/01/11 00:50:47;;;;;;;4.30;1.63;;;27.20;91.80;;;;;;5072318;28;20025;-53
2022/01/11 00:53:15;;;;;;;8.60;2.00;;;27.10;91.70;;;;;;5070551;28;20021;-56
2022/01/11 00:55:44;;;;;;;5.72;1.58;;;27.10;91.60;;;;;;5072337;28;20028;-55
2022/01/11 00:58:11;;;;;;;6.63;1.42;;;27.10;91.90;;;;;;5075406;28;20486;-56
2022/01/11 01:00:39;;;;;;;6.38;2.35;;;27.10;92.00;;;;;;5075474;28;20024;-55
2022/01/11 01:03:07;;;;;;;5.57;1.95;;;27.10;91.90;;;;;;5076784;28;20367;-62
2022/01/11 01:05:35;;;;;;;10.32;1.90;;;27.20;91.30;;;;;;5075645;28;20027;-54
2022/01/11 01:08:02;;;;;;;6.55;1.80;;;27.30;91.70;;;;;;5075749;28;20025;-55
2022/01/11 01:10:35;;;;;;;6.78;1.92;;;27.40;91.50;;;;;;5075930;28;20169;-57
2022/01/11 01:13:06;;;;;;;8.00;2.35;;;27.40;91.20;;;;;;5075900;28;20086;-59
2022/01/11 01:15:37;;;;;;;9.43;3.17;;;27.40;91.20;;;;;;5074677;28;20487;-53
2022/01/11 01:18:06;;;;;;;7.53;1.90;;;27.50;91.20;;;;;;5075554;28;20131;-57
2022/01/11 01:20:34;;;;;;;3.13;1.35;;;27.50;91.20;;;;;;5075934;28;20024;-56
2022/01/11 01:23:02;;;;;;;3.70;1.63;;;27.50;91.20;;;;;;5075682;28;20035;-55
2022/01/11 01:25:30;;;;;;;4.78;1.80;;;27.40;91.40;;;;;;5075557;28;20062;-50
2022/01/11 01:27:57;;;;;;;5.43;1.60;;;27.50;91.40;;;;;;5074389;28;20046;-56
2022/01/11 01:30:25;;;;;;;3.42;1.40;;;27.40;91.30;;;;;;5075890;28;20383;-60
2022/01/11 01:32:53;;;;;;;7.60;1.85;;;27.40;91.50;;;;;;5075547;28;20024;-58
2022/01/11 01:35:25;;;;;;;5.88;1.65;;;27.50;91.30;;;;;;5075168;28;20020;-55
2022/01/11 01:37:53;;;;;;;5.25;1.92;;;27.50;91.20;;;;;;5075344;28;20119;-48
2022/01/11 01:40:20;;;;;;;4.50;2.10;;;27.50;91.00;;;;;;5074090;28;20024;-57
2022/01/11 01:42:49;;;;;;;6.97;2.05;;;27.60;91.10;;;;;;5075338;28;20036;-52
2022/01/11 01:45:17;;;;;;;5.95;2.00;;;27.50;91.30;;;;;;5075187;28;20497;-58
2022/01/11 01:47:44;;;;;;;7.90;2.40;;;27.60;91.30;;;;;;5075426;28;20090;-58
2022/01/11 01:50:12;;;;;;;9.90;2.30;;;27.50;91.40;;;;;;5075181;28;20036;-55
2022/01/11 01:52:40;;;;;;;8.20;2.13;;;27.50;91.40;;;;;;5075147;28;20036;-57
2022/01/11 01:55:08;;;;;;;8.52;2.28;;;27.50;91.50;;;;;;5075029;28;20052;-58
2022/01/11 01:57:35;;;;;;;8.73;2.00;;;27.40;91.70;;;;;;5075068;28;20072;-55
2022/01/11 02:00:11;;;;;;;9.48;2.78;;;27.40;91.70;;;;;;5075117;28;20571;-59
2022/01/11 02:02:39;;;;;;;11.23;1.98;;;27.40;91.70;;;;;;5074988;28;20047;-59
2022/01/11 02:05:07;;;;;;;8.45;2.55;;;27.30;91.70;;;;;;5074874;28;20033;-60
2022/01/11 02:07:36;;;;;;;6.93;2.05;;;27.30;91.80;;;;;;5074557;28;20112;-59
2022/01/11 02:10:06;;;;;;;9.32;2.50;;;27.30;91.90;;;;;;5073649;28;20029;-60
2022/01/11 02:12:34;;;;;;;6.72;2.13;;;27.30;91.90;;;;;;5074468;28;20078;-53
2022/01/11 02:15:03;;;;;;;5.22;1.70;;;27.30;92.00;;;;;;5073766;28;20096;-57
2022/01/11 02:17:33;;;;;;;8.55;2.53;;;27.20;91.90;;;;;;5073968;28;20116;-54
2022/01/11 02:20:00;;;;;;;8.88;2.65;;;27.20;92.20;;;;;;5073846;28;20471;-60
2022/01/11 02:22:28;;;;;;;6.78;1.75;;;27.20;92.10;;;;;;5073545;28;20033;-51
2022/01/11 02:24:56;;;;;;;7.18;2.13;;;27.20;92.30;;;;;;5074192;28;20103;-58
2022/01/11 02:27:23;;;;;;;4.18;1.67;;;27.20;92.10;;;;;;5074594;28;20108;-58
2022/01/11 02:29:50;;;;;;;4.00;1.58;;;27.20;92.20;;;;;;5074443;28;20130;-54
2022/01/11 02:32:18;;;;;;;3.90;1.50;;;27.20;92.30;;;;;;5074616;28;20031;-55
2022/01/11 02:34:45;;;;;;;7.85;2.88;;;27.20;92.40;;;;;;5074322;28;20016;-52
2022/01/11 02:37:13;;;;;;;5.43;1.77;;;27.30;92.00;;;;;;5073069;28;20479;-53
2022/01/11 02:39:44;;;;;;;4.55;1.88;;;27.30;91.90;;;;;;5073339;28;20090;-59
2022/01/11 02:42:11;;;;;;;9.38;3.03;;;27.30;91.90;;;;;;5074195;28;20320;-59
2022/01/11 02:44:39;;;;;;;6.25;2.33;;;27.30;91.90;;;;;;5074667;28;20410;-56
2022/01/11 02:47:07;;;;;;;6.68;2.08;;;27.40;91.80;;;;;;5074397;28;20099;-52
2022/01/11 02:49:34;;;;;;;7.13;2.35;;;27.40;91.80;;;;;;5073992;28;20074;-51
2022/01/11 02:52:02;;;;;;;5.63;1.75;;;27.40;91.70;;;;;;5074138;28;20021;-56
2022/01/11 02:54:29;;;;;;;4.68;1.90;;;27.50;91.70;;;;;;5074117;28;20070;-60
2022/01/11 02:56:57;;;;;;;4.97;1.75;;;27.50;91.50;;;;;;5073961;28;20040;-56
2022/01/11 02:59:24;;;;;;;5.68;1.90;;;27.50;91.50;;;;;;5072760;28;20017;-57
2022/01/11 03:01:51;;;;;;;5.68;2.50;;;27.60;91.40;;;;;;5074070;28;20047;-47
2022/01/11 03:04:19;;;;;;;5.40;1.80;;;27.60;91.20;;;;;;5073760;28;20107;-54
2022/01/11 03:06:46;;;;;;;8.18;2.10;;;27.50;91.50;;;;;;5073571;28;20063;-60
2022/01/11 03:09:14;;;;;;;8.05;2.17;;;27.50;91.30;;;;;;5073835;28;20016;-60
2022/01/11 03:11:41;;;;;;;4.93;2.08;;;27.40;91.60;;;;;;5073971;28;20025;-61
2022/01/11 03:14:09;;;;;;;5.03;1.75;;;27.40;91.80;;;;;;5073313;28;20079;-56
2022/01/11 03:16:36;;;;;;;9.13;3.08;;;27.30;92.00;;;;;;5073352;28;20028;-60
2022/01/11 03:19:03;;;;;;;12.52;3.03;;;27.30;91.80;;;;;;5073603;28;20029;-60
2022/01/11 03:21:31;;;;;;;6.00;2.10;;;27.30;91.60;;;;;;5072993;28;20147;-54
2022/01/11 03:23:58;;;;;;;6.25;2.67;;;27.30;92.00;;;;;;5073075;28;20133;-58
2022/01/11 03:26:26;;;;;;;8.63;2.33;;;27.30;92.20;;;;;;5073799;28;20472;-61
2022/01/11 03:28:53;;;;;;;7.95;2.72;;;27.20;92.30;;;;;;5073204;28;20024;-60
2022/01/11 03:31:23;;;;;;;6.22;1.60;;;27.20;92.30;;;;;;5073390;28;20040;-61
2022/01/11 03:33:51;;;;;;;4.35;1.83;;;27.20;92.30;;;;;;5073020;28;20023;-52
2022/01/11 03:36:19;;;;;;;6.65;1.77;;;27.20;92.40;;;;;;5073255;28;20035;-55
2022/01/11 03:38:46;;;;;;;8.40;2.28;;;27.20;92.40;;;;;;5073051;28;20483;-60
2022/01/11 03:41:14;;;;;;;5.97;1.95;;;27.20;92.40;;;;;;5073121;28;20027;-58
2022/01/11 03:43:42;;;;;;;7.10;2.65;;;27.10;92.50;;;;;;5073081;28;20024;-60
2022/01/11 03:46:10;;;;;;;8.88;2.45;;;27.10;92.50;;;;;;5073098;28;20100;-58
2022/01/11 03:48:37;;;;;;;7.75;2.00;;;27.10;92.60;;;;;;5073807;28;20056;-64
2022/01/11 03:51:05;;;;;;;12.38;2.47;;;27.00;92.60;;;;;;5072839;28;20085;-53
2022/01/11 03:53:44;;;;;;;7.85;2.53;;;27.00;92.70;;;;;;5072723;28;20352;-53
2022/01/11 03:56:21;;;;;;;4.75;1.88;;;27.00;92.60;;;;;;5072980;28;20345;-60
2022/01/11 03:58:50;;;;;;;4.65;1.70;;;27.10;92.70;;;;;;5071710;28;20025;-60
2022/01/11 04:01:22;;;;;;;5.82;2.33;;;27.00;92.70;;;;;;5073104;28;20045;-59
2022/01/11 04:03:50;;;;;;;8.13;2.55;;;27.00;92.70;;;;;;5073376;28;20313;-50
2022/01/11 04:06:18;;;;;;;4.00;1.90;;;27.00;92.70;;;;;;5073086;28;20585;-56
2022/01/11 04:08:46;;;;;;;5.35;1.70;;;27.00;92.70;;;;;;5074509;28;20031;-59
2022/01/11 04:11:14;;;;;;;4.40;1.70;;;27.00;92.90;;;;;;5073137;28;20460;-53
2022/01/11 04:13:41;;;;;;;9.52;1.90;;;27.00;92.90;;;;;;5072902;28;20051;-58
2022/01/11 04:16:09;;;;;;;5.78;1.90;;;26.90;93.00;;;;;;5072436;28;20021;-57
2022/01/11 04:18:36;;;;;;;6.57;2.50;;;26.90;92.80;;;;;;5072716;28;20070;-51
2022/01/11 04:21:05;;;;;;;6.00;1.95;;;27.00;92.90;;;;;;5071297;28;20119;-54
2022/01/11 04:23:33;;;;;;;7.38;2.38;;;27.00;92.80;;;;;;5072751;28;20050;-59
2022/01/11 04:26:01;;;;;;;3.95;1.70;;;27.00;92.60;;;;;;5072925;28;20024;-60
2022/01/11 04:28:28;;;;;;;3.58;1.73;;;27.00;92.90;;;;;;5073296;28;20042;-60
2022/01/11 04:30:58;;;;;;;5.18;1.70;;;26.90;93.00;;;;;;5072987;28;20425;-59
2022/01/11 04:33:27;;;;;;;5.53;1.60;;;26.90;93.10;;;;;;5072720;28;20028;-61
2022/01/11 04:35:54;;;;;;;8.52;2.65;;;26.90;93.20;;;;;;5072852;28;20059;-59
2022/01/11 04:38:25;;;;;;;4.60;2.08;;;26.90;93.00;;;;;;5072779;28;20086;-61
2022/01/11 04:40:52;;;;;;;8.25;2.55;;;26.90;93.10;;;;;;5073299;28;20422;-58
2022/01/11 04:43:20;;;;;;;8.50;2.13;;;27.00;93.10;;;;;;5073629;28;20480;-57
2022/01/11 04:45:48;;;;;;;9.55;3.42;;;26.90;93.00;;;;;;5072731;28;20108;-61
2022/01/11 04:48:16;;;;;;;6.75;2.00;;;26.90;93.00;;;;;;5072656;28;20029;-56
2022/01/11 04:50:45;;;;;;;6.10;1.77;;;26.90;93.00;;;;;;5073464;28;20025;-56
2022/01/11 04:53:12;;;;;;;7.25;2.22;;;26.90;93.20;;;;;;5072918;28;20017;-60
2022/01/11 04:55:40;;;;;;;7.28;2.30;;;26.90;93.10;;;;;;5072060;28;20518;-59
2022/01/11 04:58:07;;;;;;;7.55;2.50;;;26.90;93.10;;;;;;5072199;28;20044;-61
2022/01/11 05:00:35;;;;;;;7.28;2.13;;;26.90;93.20;;;;;;5072143;28;20021;-57
2022/01/11 05:03:02;;;;;;;5.25;1.95;;;26.90;93.30;;;;;;5070841;28;20028;-56
2022/01/11 05:05:30;;;;;;;9.02;2.42;;;26.90;93.30;;;;;;5071148;28;20017;-59
2022/01/11 05:07:58;;;;;;;5.25;1.73;;;26.80;93.20;;;;;;5072087;28;20494;-56
2022/01/11 05:10:25;;;;;;;8.30;2.40;;;26.90;93.30;;;;;;5072194;28;20055;-61
2022/01/11 05:12:53;;;;;;;7.20;2.55;;;26.90;93.20;;;;;;5072712;28;20024;-59
2022/01/11 05:15:23;;;;;;;5.50;2.05;;;26.90;93.10;;;;;;5072345;28;20021;-60
2022/01/11 05:17:51;;;;;;;7.88;2.88;;;26.90;93.00;;;;;;5071823;28;20057;-55
2022/01/11 05:20:19;;;;;;;5.43;1.85;;;26.90;93.00;;;;;;5071414;28;20100;-54
2022/01/11 05:22:47;;;;;;;4.88;1.85;;;26.80;93.20;;;;;;5071857;28;20025;-59
2022/01/11 05:25:15;;;;;;;5.50;2.08;;;26.80;93.20;;;;;;5071394;28;20063;-61
2022/01/11 05:27:43;;;;;;;7.00;2.15;;;26.80;93.20;;;;;;5072371;28;20028;-60
2022/01/11 05:30:11;;;;;;;11.65;3.25;;;26.70;93.30;;;;;;5072074;28;20114;-56
2022/01/11 05:32:39;;;;;;;6.93;2.33;;;26.70;93.00;;;;;;5072038;28;20131;-55
2022/01/11 05:35:09;;;;;;;7.05;2.22;;;26.70;93.10;;;;;;5071649;28;20032;-58
2022/01/11 05:37:37;;;;;;;7.65;1.90;;;26.70;93.10;;;;;;5071786;28;20451;-59
2022/01/11 05:40:06;;;;;;;5.72;2.50;;;26.70;93.20;;;;;;5071956;28;20077;-63
2022/01/11 05:42:34;;;;;;;7.53;2.45;;;26.70;93.40;;;;;;5071435;28;20024;-57
2022/01/11 05:45:03;;;;;;;8.90;2.15;;;26.60;93.40;;;;;;5075802;28;20017;-61
2022/01/11 05:47:30;;;;;;;4.30;1.73;;;26.60;93.40;;;;;;5074286;28;20387;-57
2022/01/11 05:50:00;;;;;;;5.82;1.83;;;26.50;93.60;;;;;;5075230;28;20499;-59
2022/01/11 05:52:28;;;;;;;5.05;2.00;;;26.50;93.60;;;;;;5075340;28;20031;-58
2022/01/11 05:54:55;;;;;;;5.82;2.63;;;26.40;93.80;;;;;;5075881;28;20052;-59
2022/01/11 05:57:23;;;;;;;6.85;1.85;;;26.40;93.80;;;;;;5075614;28;20043;-55
2022/01/11 05:59:50;;;;;;;4.60;1.92;;;26.40;93.80;;;;;;5075747;28;20016;-62
2022/01/11 06:02:18;;;;;;;5.10;2.10;;;26.40;94.00;;;;;;5075629;28;20017;-58
2022/01/11 06:05:12;;;;;;;8.38;2.10;;;26.40;94.00;;;;;;5075840;28;20028;-60
2022/01/11 06:07:40;;;;;;;13.27;4.00;;;26.40;94.00;;;;;;5073880;28;20514;-55
2022/01/11 06:10:08;;;;;;;8.48;2.53;;;26.40;93.90;;;;;;5073794;28;20033;-56
2022/01/11 06:12:35;;;;;;;5.45;1.83;;;26.30;93.90;;;;;;5075258;28;20020;-52
2022/01/11 06:15:03;;;;;;;8.57;2.03;;;26.40;94.00;;;;;;5074711;28;20021;-58
2022/01/11 06:17:31;;;;;;;6.32;1.77;;;26.30;94.00;;;;;;5074991;28;20467;-58
2022/01/11 06:19:58;;;;;;;8.23;2.13;;;26.30;94.00;;;;;;5074510;28;20052;-45
2022/01/11 06:22:25;;;;;;;6.80;2.30;;;26.30;94.00;;;;;;5073586;28;20131;-56
2022/01/11 06:24:53;;;;;;;6.95;2.13;;;26.30;94.10;;;;;;5074748;28;20336;-55
2022/01/11 06:27:20;;;;;;;6.63;2.20;;;26.30;94.20;;;;;;5074295;28;20029;-59
2022/01/11 06:29:48;;;;;;;11.50;2.63;;;26.20;94.20;;;;;;5074711;28;20430;-54
2022/01/11 06:32:15;;;;;;;6.05;1.85;;;26.30;94.30;;;;;;5074285;28;20048;-57
2022/01/11 06:34:46;;;;;;;7.65;2.53;;;26.20;94.20;;;;;;5074280;28;20020;-55
2022/01/11 06:37:13;;;;;;;7.65;2.35;;;26.30;94.20;;;;;;5073760;28;20107;-59
2022/01/11 06:39:41;;;;;;;6.50;2.25;;;26.30;94.20;;;;;;5074346;28;20498;-55
2022/01/11 06:42:08;;;;;;;10.02;2.50;;;26.20;94.20;;;;;;5074208;28;20029;-62
2022/01/11 06:44:37;;;;;;;5.65;2.13;;;26.20;94.20;;;;;;5074368;28;20487;-55
2022/01/11 06:47:05;;;;;;;7.47;2.40;;;26.20;94.20;;;;;;5074280;28;20036;-46
2022/01/11 06:49:33;;;;;;;7.13;1.92;;;26.20;94.20;;;;;;5074619;28;20332;-50
2022/01/11 06:52:00;;;;;;;5.68;2.03;;;26.20;94.30;;;;;;5073793;28;20099;-59
2022/01/11 06:54:27;;;;;;;5.93;1.75;;;26.20;94.40;;;;;;5073329;28;20214;-60
2022/01/11 06:56:55;;;;;;;6.20;2.13;;;26.10;94.30;;;;;;5073472;28;20020;-71
2022/01/11 06:59:22;;;;;;;6.30;2.22;;;26.10;94.40;;;;;;5073849;28;20024;-53
2022/01/11 07:01:52;;;;;;;7.38;2.33;;;26.10;94.40;;;;;;5073862;28;20016;-56
2022/01/11 07:04:19;;;;;;;6.75;2.10;;;26.10;94.50;;;;;;5074225;28;20493;-60
2022/01/11 07:06:46;;;;;;;8.50;2.20;;;26.10;94.50;;;;;;5074060;28;20033;-57
2022/01/11 07:09:14;;;;;;;6.32;1.90;;;26.10;94.50;;;;;;5075076;28;20028;-58
2022/01/11 07:11:41;;;;;;;10.32;2.95;;;26.10;94.50;;;;;;5076010;28;20031;-56
2022/01/11 07:14:09;;;;;;;6.85;2.20;;;26.10;94.50;;;;;;5073193;28;20029;-58
2022/01/11 07:16:36;;;;;;;8.75;2.05;;;26.10;94.40;;;;;;5073403;28;20036;-61
2022/01/11 07:19:03;;;;;;;6.47;2.33;;;26.10;94.50;;;;;;5072513;28;20017;-58
2022/01/11 07:21:34;;;;;;;7.05;2.35;;;26.10;94.40;;;;;;5072489;28;20020;-60
2022/01/11 07:24:02;;;;;;;5.35;1.92;;;26.10;94.50;;;;;;5072596;28;20079;-59
2022/01/11 07:26:32;;;;;;;7.10;2.50;;;26.00;94.50;;;;;;5073641;28;20471;-59
2022/01/11 07:28:59;;;;;;;7.60;2.13;;;26.00;94.50;;;;;;5072479;28;20024;-59
2022/01/11 07:31:27;;;;;;;6.30;2.00;;;26.00;94.50;;;;;;5073629;28;20036;-61
2022/01/11 07:33:54;;;;;;;7.45;2.00;;;26.00;94.50;;;;;;5073533;28;20020;-62
2022/01/11 07:36:21;;;;;;;4.00;1.75;;;26.00;94.60;;;;;;5073418;28;20044;-61
2022/01/11 07:38:51;;;;;;;6.95;2.38;;;26.00;94.60;;;;;;5073522;28;20060;-63
2022/01/11 07:41:19;;;;;;;4.53;2.25;;;26.00;94.60;;;;;;5073292;28;20017;-59
2022/01/11 07:43:46;;;;;;;4.60;1.63;;;26.00;94.60;;;;;;5073199;28;20467;-58
2022/01/11 07:46:13;;;;;;;7.32;2.30;;;26.00;94.60;;;;;;5073108;28;20116;-57
2022/01/11 07:48:41;;;;;;;8.18;2.35;;;26.00;94.50;;;;;;5073185;28;20471;-59
2022/01/11 07:51:08;;;;;;;7.82;2.33;;;26.00;94.70;;;;;;5073132;28;20025;-61
2022/01/11 07:53:35;;;;;;;6.28;1.85;;;26.00;94.70;;;;;;5073382;28;20066;-59
2022/01/11 07:56:03;;;;;;;5.57;1.90;;;25.90;94.60;;;;;;5073257;28;20024;-55
2022/01/11 07:58:31;;;;;;;6.80;1.83;;;25.90;94.70;;;;;;5072836;28;20495;-58
2022/01/11 08:00:58;;;;;;;3.97;1.55;;;25.90;94.70;;;;;;5072249;28;20046;-61
2022/01/11 08:03:26;;;;;;;4.55;1.83;;;25.90;94.80;;;;;;5072958;28;20043;-58
2022/01/11 08:05:53;;;;;;;5.63;1.90;;;25.90;94.80;;;;;;5072578;28;20384;-57
2022/01/11 08:08:21;;;;;;;6.28;2.03;;;25.90;94.80;;;;;;5073453;28;20024;-58
2022/01/11 08:10:48;;;;;;;3.78;1.65;;;25.90;94.80;;;;;;5073115;28;20502;-60
2022/01/11 08:13:16;;;;;;;6.13;2.08;;;25.90;94.80;;;;;;5073170;28;20032;-55
2022/01/11 08:15:44;;;;;;;4.70;1.98;;;25.90;94.80;;;;;;5073270;28;20028;-60
2022/01/11 08:18:11;;;;;;;6.50;2.10;;;25.90;94.80;;;;;;5072720;28;20535;-59
2022/01/11 08:20:39;;;;;;;7.18;2.33;;;25.90;94.80;;;;;;5072900;28;20036;-56
2022/01/11 08:23:06;;;;;;;4.95;1.95;;;25.90;94.80;;;;;;5072954;28;20467;-57
2022/01/11 08:25:34;;;;;;;5.20;1.88;;;25.90;94.90;;;;;;5072947;28;20029;-59
2022/01/11 08:28:01;;;;;;;5.60;2.08;;;25.90;94.90;;;;;;5072892;28;20028;-58
2022/01/11 08:30:29;;;;;;;4.45;1.92;;;25.90;94.80;;;;;;5073538;28;20387;-57
2022/01/11 08:32:56;;;;;;;5.50;1.85;;;25.90;94.90;;;;;;5073009;28;20112;-54
2022/01/11 08:35:24;;;;;;;5.47;2.08;;;25.90;94.90;;;;;;5074224;28;20024;-58
2022/01/11 08:37:52;;;;;;;4.20;1.90;;;25.90;94.90;;;;;;5073702;28;20037;-52
2022/01/11 08:40:20;;;;;;;4.85;1.48;;;25.80;94.90;;;;;;5073209;28;20020;-63
2022/01/11 08:42:47;;;;;;;5.90;2.15;;;25.80;94.90;;;;;;5073273;28;20028;-60
2022/01/11 08:45:14;;;;;;;5.68;1.98;;;25.80;95.00;;;;;;5073250;28;20376;-59
2022/01/11 08:47:42;;;;;;;6.60;2.42;;;25.80;94.90;;;;;;5072867;28;20034;-54
2022/01/11 08:50:14;;;;;;;4.18;1.60;;;25.80;94.90;;;;;;5072709;28;20443;-59
2022/01/11 08:52:45;;;;;;;4.93;1.70;;;25.80;94.90;;;;;;5073260;28;20021;-55
2022/01/11 08:55:13;;;;;;;5.97;2.25;;;25.80;94.90;;;;;;5071478;28;20041;-57
2022/01/11 08:57:40;;;;;;;3.78;1.75;;;25.80;94.90;;;;;;5071521;28;20067;-59
2022/01/11 09:00:16;;;;;;;7.57;1.77;;;25.80;94.90;;;;;;5072574;28;20387;-59
2022/01/11 09:02:46;;;;;;;6.38;1.90;;;25.80;94.90;;;;;;5072678;28;20032;-55
2022/01/11 09:05:14;;;;;;;4.63;1.83;;;25.80;94.90;;;;;;5072248;28;20032;-58
2022/01/11 09:07:42;;;;;;;4.43;1.70;;;25.80;94.90;;;;;;5072284;28;20024;-57
2022/01/11 09:10:13;;;;;;;4.22;1.70;;;25.80;94.90;;;;;;5072682;28;20059;-59
2022/01/11 09:12:41;;;;;;;6.03;2.35;;;25.70;94.90;;;;;;5071567;28;20038;-60
2022/01/11 09:15:10;;;;;;;4.95;1.80;;;25.70;95.00;;;;;;5072464;28;20509;-62
2022/01/11 09:17:38;;;;;;;5.75;2.13;;;25.70;94.90;;;;;;5073155;28;20036;-58
2022/01/11 09:20:07;;;;;;;5.65;1.73;;;25.70;95.00;;;;;;5074361;28;20059;-60
2022/01/11 09:22:35;;;;;;;5.70;1.80;;;25.70;95.00;;;;;;5076533;28;20032;-59
2022/01/11 09:25:06;;;;;;;4.32;1.60;;;25.70;95.00;;;;;;5075499;28;20090;-61
2022/01/11 09:27:34;;;;;;;6.63;1.97;;;25.70;95.10;;;;;;5075190;28;20107;-62
2022/01/11 09:30:02;;;;;;;5.65;1.75;;;25.70;95.10;;;;;;5076211;28;20768;-61
2022/01/11 09:32:30;;;;;;;5.97;1.67;;;25.60;95.10;;;;;;5076216;28;20032;-60
2022/01/11 09:34:57;;;;;;;4.55;1.70;;;25.60;95.10;;;;;;5076207;28;20374;-62
2022/01/11 09:37:24;;;;;;;5.45;2.08;;;25.60;95.10;;;;;;5076350;28;20089;-61
2022/01/11 09:39:52;;;;;;;3.95;1.75;;;25.60;95.20;;;;;;5075985;28;20439;-53
2022/01/11 09:42:20;;;;;;;6.57;2.10;;;25.60;95.10;;;;;;5076004;28;20078;-61
2022/01/11 09:44:48;;;;;;;4.80;1.92;;;25.60;95.20;;;;;;5075891;28;20463;-62
2022/01/11 09:47:16;;;;;;;8.40;2.03;;;25.60;95.20;;;;;;5074574;28;20051;-55
2022/01/11 09:49:44;;;;;;;6.18;2.05;;;25.60;95.20;;;;;;5074511;28;20491;-61
2022/01/11 09:52:13;;;;;;;5.25;1.73;;;25.60;95.20;;;;;;5075476;28;20492;-58
2022/01/11 09:54:47;;;;;;;4.90;1.85;;;25.50;95.20;;;;;;5075470;28;20079;-60
2022/01/11 09:57:15;;;;;;;6.90;2.50;;;25.50;95.30;;;;;;5075594;28;20032;-58
2022/01/11 09:59:43;;;;;;;4.30;1.60;;;25.50;95.30;;;;;;5074097;28;20031;-61
2022/01/11 10:02:12;;;;;;;5.25;2.03;;;25.50;95.20;;;;;;5074206;28;20548;-60
2022/01/11 10:04:44;;;;;;;4.13;1.30;;;25.50;95.30;;;;;;5075791;28;20020;-63
2022/01/11 10:07:13;;;;;;;5.47;2.15;;;25.50;95.30;;;;;;5075932;28;20032;-63
2022/01/11 10:09:49;;;;;;;5.53;1.83;;;25.50;95.30;;;;;;5076632;28;20029;-61
2022/01/11 10:12:19;;;;;;;5.40;1.77;;;25.50;95.30;;;;;;5077074;28;20035;-56
2022/01/11 10:14:53;;;;;;;4.60;1.40;;;25.50;95.30;;;;;;5076596;28;20025;-64
2022/01/11 10:17:23;;;;;;;3.90;1.67;;;25.50;95.30;;;;;;5076768;28;20033;-64
2022/01/11 10:20:08;;;;;;;6.38;2.08;;;25.50;95.30;;;;;;5075718;28;20034;-65
2022/01/11 10:22:44;;;;;;;4.28;1.70;;;25.50;95.30;;;;;;5075415;28;20103;-63
2022/01/11 10:25:11;;;;;;;6.25;1.75;;;25.50;95.40;;;;;;5075363;28;20028;-62
2022/01/11 10:27:39;;;;;;;6.15;2.20;;;25.50;95.40;;;;;;5074051;28;20033;-63
2022/01/11 10:30:14;;;;;;;3.78;1.45;;;25.50;95.60;;;;;;5073923;28;20371;-63
2022/01/11 10:32:51;;;;;;;6.15;1.75;;;25.50;95.40;;;;;;5074876;28;20493;-62
2022/01/11 10:35:29;;;;;;;5.35;1.73;;;25.50;95.30;;;;;;5075095;28;20467;-62
2022/01/11 10:38:00;;;;;;;5.10;1.75;;;25.50;95.40;;;;;;5075005;28;20379;-50
2022/01/11 10:40:39;;;;;;;5.87;1.97;;;25.50;95.40;;;;;;5075140;28;20031;-61
2022/01/11 10:43:13;;;;;;;4.90;1.55;;;25.50;95.40;;;;;;5074947;28;20766;-63
2022/01/11 10:45:43;;;;;;;6.45;2.03;;;25.50;95.40;;;;;;5074934;28;20040;-63
2022/01/11 10:48:22;;;;;;;4.68;1.55;;;25.40;95.40;;;;;;5074919;28;20021;-60
2022/01/11 10:50:58;;;;;;;4.28;1.42;;;25.40;95.30;;;;;;5074746;28;20028;-50
2022/01/11 10:53:32;;;;;;;5.72;1.85;;;25.40;95.30;;;;;;5074580;28;20024;-56
2022/01/11 10:56:03;;;;;;;6.50;1.88;;;25.40;95.30;;;;;;5074503;28;20138;-58
2022/01/11 10:58:39;;;;;;;6.95;1.77;;;25.40;95.40;;;;;;5075016;28;20125;-60
2022/01/11 11:01:09;;;;;;;3.78;1.70;;;25.40;95.40;;;;;;5074796;28;20345;-63
2022/01/11 11:03:37;;;;;;;5.35;2.00;;;25.40;95.40;;;;;;5075177;28;20028;-63
2022/01/11 11:06:08;;;;;;;5.18;1.50;;;25.40;95.30;;;;;;5074186;28;20020;-60
2022/01/11 11:08:41;;;;;;;4.20;1.83;;;25.40;95.40;;;;;;5074324;28;20012;-60
2022/01/11 11:11:12;;;;;;;7.03;1.90;;;25.40;95.30;;;;;;5074692;28;20021;-58
2022/01/11 11:13:42;;;;;;;6.18;1.70;;;25.40;95.40;;;;;;5075081;28;20021;-57
2022/01/11 11:16:23;;;;;;;5.05;1.90;;;25.40;95.40;;;;;;5074307;28;20124;-60
2022/01/11 11:19:01;;;;;;;3.20;1.55;;;25.40;95.40;;;;;;5074666;28;20044;-63
2022/01/11 11:21:38;;;;;;;5.20;1.77;;;25.40;95.30;;;;;;5074967;28;20035;-62
2022/01/11 11:24:14;;;;;;;4.75;1.45;;;25.30;95.30;;;;;;5074194;28;20054;-62
2022/01/11 11:26:49;;;;;;;6.18;2.03;;;25.30;95.30;;;;;;5074365;28;20102;-61
2022/01/11 11:29:19;;;;;;;4.07;1.73;;;25.30;95.40;;;;;;5074783;28;20024;-57
2022/01/11 11:31:48;;;;;;;3.88;1.63;;;25.30;95.30;;;;;;5074265;28;20016;-61
2022/01/11 11:34:16;;;;;;;5.55;1.77;;;25.30;95.30;;;;;;5072660;28;20029;-62
2022/01/11 11:36:45;;;;;;;3.83;1.52;;;25.30;95.30;;;;;;5073788;28;20029;-54
2022/01/11 11:39:20;;;;;;;4.28;2.00;;;25.30;95.30;;;;;;5074095;28;20054;-62
2022/01/11 11:41:53;;;;;;;4.38;1.45;;;25.30;95.30;;;;;;5073714;28;20025;-55
2022/01/11 11:44:29;;;;;;;7.25;1.85;;;25.30;95.30;;;;;;5073834;28;20104;-61
2022/01/11 11:46:59;;;;;;;4.25;1.77;;;25.30;95.30;;;;;;5073738;28;20036;-60
2022/01/11 11:49:45;;;;;;;4.65;1.75;;;25.30;95.40;;;;;;5074012;28;20081;-58
2022/01/11 11:52:18;;;;;;;6.82;2.20;;;25.20;95.30;;;;;;5072515;28;20074;-60
2022/01/11 11:55:00;;;;;;;4.90;2.03;;;25.30;95.30;;;;;;5072297;28;20045;-60
2022/01/11 11:57:33;;;;;;;7.65;2.47;;;25.20;95.30;;;;;;5073980;28;20036;-62
2022/01/11 12:00:12;;;;;;;7.57;2.60;;;25.20;95.30;;;;;;5072315;28;20047;-61
2022/01/11 12:02:45;;;;;;;4.85;2.10;;;25.20;95.20;;;;;;5073989;28;20028;-56
2022/01/11 12:05:37;;;;;;;3.95;1.60;;;25.20;95.20;;;;;;5073816;28;20055;-61
2022/01/11 12:08:38;;;;;;;4.05;1.55;;;25.20;95.30;;;;;;5068794;28;20044;-56
2022/01/11 12:11:10;;;;;;;6.55;1.75;;;25.20;95.30;;;;;;5073567;28;20032;-61
2022/01/11 12:13:46;;;;;;;;;;;25.20;95.30;;;;;;5074061;28;20031;-56
2022/01/11 12:16:25;;;;;;;3.97;1.50;;;25.20;95.30;;;;;;5073339;28;20266;-58
2022/01/11 12:19:05;;;;;;;5.72;1.85;;;25.20;95.30;;;;;;5072922;28;20058;-57
2022/01/11 12:22:03;;;;;;;4.50;1.50;;;25.10;95.30;;;;;;5072926;28;20024;-60
2022/01/11 12:25:03;;;;;;;6.28;1.85;;;25.10;95.30;;;;;;5072910;28;20143;-59
2022/01/11 12:27:30;;;;;;;3.17;1.67;;;25.10;95.30;;;;;;5065029;28;20399;-55
2022/01/11 12:30:07;;;;;;;4.15;1.60;;;25.10;95.30;;;;;;5072831;28;20070;-61
2022/01/11 12:32:38;;;;;;;4.57;1.60;;;25.10;95.40;;;;;;5072925;28;20028;-59
2022/01/11 12:35:10;;;;;;;5.65;1.58;;;25.10;95.30;;;;;;5073098;28;20013;-57
2022/01/11 12:37:40;;;;;;;4.72;1.83;;;25.00;95.30;;;;;;5073028;28;20048;-60
2022/01/11 12:40:15;;;;;;;6.18;2.28;;;25.00;95.30;;;;;;5072592;28;20103;-59
2022/01/11 12:42:55;;;;;;;6.43;1.85;;;25.00;95.30;;;;;;5072650;28;20040;-59
2022/01/11 12:45:46;;;;;;;6.30;1.73;;;25.00;95.30;;;;;;5073402;28;20033;-60
2022/01/11 12:48:13;;;;;;;4.47;1.52;;;25.00;95.30;;;;;;5072758;28;20085;-61
2022/01/11 12:51:01;;;;;;;5.25;1.92;;;25.00;95.30;;;;;;5072384;28;20373;-57
2022/01/11 12:53:28;;;;;;;5.28;2.00;;;25.00;95.30;;;;;;5074675;28;20545;-60
2022/01/11 12:55:59;;;;;;;4.78;1.88;;;25.00;95.30;;;;;;5076683;28;20089;-58
2022/01/11 12:58:26;;;;;;;6.20;2.22;;;25.00;95.30;;;;;;5076821;28;20096;-61
2022/01/11 13:00:54;;;;;;;6.20;1.95;;;24.90;95.30;;;;;;5076675;28;20024;-61